sensor_id;sensor_type;location;lat;lon;timestamp;P1;durP1;ratioP1;P2;durP2;ratioP2
1715;SDS011;855;48.824;9.220;2022-10-17T05:34:41;12.63;;;2.70;;
1715;SDS011;855;48.824;9.220;2022-10-17T05:39:44;11.80;;;2.73;;
1715;SDS011;855;48.824;9.220;2022-10-17T05:42:11;2.30;;;1.83;;
1715;SDS011;855;48.824;9.220;2022-10-17T05:44:38;3.37;;;2.43;;
1715;SDS011;855;48.824;9.220;2022-10-17T05:47:05;3.67;;;2.50;;
1715;SDS011;855;48.824;9.220;2022-10-17T05:49:32;3.27;;;2.10;;
1715;SDS011;855;48.824;9.220;2022-10-17T05:52:01;4.27;;;1.80;;
1715;SDS011;855;48.824;9.220;2022-10-17T05:54:28;4.37;;;3.20;;
1715;SDS011;855;48.824;9.220;2022-10-17T05:56:55;1.27;;;1.17;;
1715;SDS011;855;48.824;9.220;2022-10-17T05:59:23;6.70;;;2.20;;
1715;SDS011;855;48.824;9.220;2022-10-17T06:01:51;3.23;;;2.07;;
1715;SDS011;855;48.824;9.220;2022-10-17T06:04:18;3.67;;;1.93;;
1715;SDS011;855;48.824;9.220;2022-10-17T06:06:45;3.90;;;2.50;;
1715;SDS011;855;48.824;9.220;2022-10-17T06:09:13;5.80;;;2.60;;
1715;SDS011;855;48.824;9.220;2022-10-17T06:11:40;5.67;;;2.90;;
1715;SDS011;855;48.824;9.220;2022-10-17T06:14:06;5.30;;;3.07;;
1715;SDS011;855;48.824;9.220;2022-10-17T06:16:33;4.80;;;2.80;;
1715;SDS011;855;48.824;9.220;2022-10-17T06:19:00;11.93;;;3.53;;
1715;SDS011;855;48.824;9.220;2022-10-17T06:21:27;4.07;;;2.83;;
1715;SDS011;855;48.824;9.220;2022-10-17T06:23:54;3.13;;;2.40;;
1715;SDS011;855;48.824;9.220;2022-10-17T06:26:22;6.70;;;2.70;;
1715;SDS011;855;48.824;9.220;2022-10-17T06:28:49;4.50;;;2.50;;
1715;SDS011;855;48.824;9.220;2022-10-17T06:31:17;4.87;;;2.50;;
1715;SDS011;855;48.824;9.220;2022-10-17T06:47:15;3.07;;;1.33;;
1715;SDS011;855;48.824;9.220;2022-10-17T06:49:42;5.23;;;3.00;;
1715;SDS011;855;48.824;9.220;2022-10-17T06:52:09;8.77;;;3.20;;
1715;SDS011;855;48.824;9.220;2022-10-17T06:57:04;2.50;;;1.63;;
1715;SDS011;855;48.824;9.220;2022-10-17T06:59:38;7.13;;;1.90;;
1715;SDS011;855;48.824;9.220;2022-10-17T07:04:38;9.00;;;2.70;;
1715;SDS011;855;48.824;9.220;2022-10-17T07:07:05;10.80;;;3.17;;
1715;SDS011;855;48.824;9.220;2022-10-17T07:09:33;6.57;;;2.27;;
1715;SDS011;855;48.824;9.220;2022-10-17T07:12:00;3.73;;;2.27;;
1715;SDS011;855;48.824;9.220;2022-10-17T07:14:31;4.07;;;2.67;;
1715;SDS011;855;48.824;9.220;2022-10-17T07:16:58;10.00;;;2.67;;
1715;SDS011;855;48.824;9.220;2022-10-17T07:19:26;3.70;;;2.80;;
1715;SDS011;855;48.824;9.220;2022-10-17T07:21:54;4.00;;;2.77;;
1715;SDS011;855;48.824;9.220;2022-10-17T07:24:21;4.07;;;2.70;;
1715;SDS011;855;48.824;9.220;2022-10-17T07:26:48;4.00;;;2.47;;
1715;SDS011;855;48.824;9.220;2022-10-17T07:29:16;3.43;;;2.77;;
1715;SDS011;855;48.824;9.220;2022-10-17T07:31:43;3.57;;;2.00;;
1715;SDS011;855;48.824;9.220;2022-10-17T07:34:13;2.60;;;2.37;;
1715;SDS011;855;48.824;9.220;2022-10-17T07:36:40;2.73;;;2.40;;
1715;SDS011;855;48.824;9.220;2022-10-17T07:39:08;5.43;;;3.07;;
1715;SDS011;855;48.824;9.220;2022-10-17T07:41:35;3.10;;;1.93;;
1715;SDS011;855;48.824;9.220;2022-10-17T07:44:02;3.13;;;1.77;;
1715;SDS011;855;48.824;9.220;2022-10-17T07:46:30;3.43;;;2.20;;
1715;SDS011;855;48.824;9.220;2022-10-17T07:48:57;3.57;;;1.67;;
1715;SDS011;855;48.824;9.220;2022-10-17T07:51:24;3.17;;;1.93;;
1715;SDS011;855;48.824;9.220;2022-10-17T07:53:51;2.90;;;1.30;;
1715;SDS011;855;48.824;9.220;2022-10-17T07:56:20;2.23;;;1.50;;
1715;SDS011;855;48.824;9.220;2022-10-17T07:58:49;2.50;;;1.57;;
1715;SDS011;855;48.824;9.220;2022-10-17T08:01:16;3.73;;;1.60;;
1715;SDS011;855;48.824;9.220;2022-10-17T08:03:43;1.50;;;1.37;;
1715;SDS011;855;48.824;9.220;2022-10-17T08:06:12;10.60;;;2.27;;
1715;SDS011;855;48.824;9.220;2022-10-17T08:08:40;1.80;;;1.63;;
1715;SDS011;855;48.824;9.220;2022-10-17T08:11:08;1.77;;;1.00;;
1715;SDS011;855;48.824;9.220;2022-10-17T08:13:38;2.67;;;1.50;;
1715;SDS011;855;48.824;9.220;2022-10-17T08:16:07;2.03;;;1.30;;
1715;SDS011;855;48.824;9.220;2022-10-17T08:18:45;23.60;;;2.40;;
1715;SDS011;855;48.824;9.220;2022-10-17T08:21:12;2.70;;;1.47;;
1715;SDS011;855;48.824;9.220;2022-10-17T08:23:39;4.37;;;2.60;;
1715;SDS011;855;48.824;9.220;2022-10-17T08:26:07;1.83;;;1.30;;
1715;SDS011;855;48.824;9.220;2022-10-17T08:28:39;3.20;;;1.73;;
1715;SDS011;855;48.824;9.220;2022-10-17T08:31:07;1.60;;;1.30;;
1715;SDS011;855;48.824;9.220;2022-10-17T08:33:36;15.80;;;2.40;;
1715;SDS011;855;48.824;9.220;2022-10-17T08:36:03;1.97;;;1.07;;
1715;SDS011;855;48.824;9.220;2022-10-17T08:38:31;1.10;;;1.07;;
1715;SDS011;855;48.824;9.220;2022-10-17T08:41:00;2.40;;;1.30;;
1715;SDS011;855;48.824;9.220;2022-10-17T08:43:32;3.83;;;1.63;;
1715;SDS011;855;48.824;9.220;2022-10-17T08:46:07;1.27;;;1.17;;
1715;SDS011;855;48.824;9.220;2022-10-17T08:48:35;2.20;;;1.60;;
1715;SDS011;855;48.824;9.220;2022-10-17T08:51:06;3.70;;;1.70;;
1715;SDS011;855;48.824;9.220;2022-10-17T08:53:39;2.03;;;1.53;;
1715;SDS011;855;48.824;9.220;2022-10-17T08:56:15;1.60;;;1.17;;
1715;SDS011;855;48.824;9.220;2022-10-17T09:01:28;1.87;;;1.37;;
1715;SDS011;855;48.824;9.220;2022-10-17T09:04:07;2.07;;;1.57;;
1715;SDS011;855;48.824;9.220;2022-10-17T09:17:35;1.10;;;0.83;;
1715;SDS011;855;48.824;9.220;2022-10-17T09:20:08;2.57;;;1.33;;
1715;SDS011;855;48.824;9.220;2022-10-17T09:22:40;2.27;;;1.60;;
1715;SDS011;855;48.824;9.220;2022-10-17T09:30:19;1.00;;;0.77;;
1715;SDS011;855;48.824;9.220;2022-10-17T09:32:54;2.90;;;1.40;;
1715;SDS011;855;48.824;9.220;2022-10-17T09:35:21;2.67;;;1.77;;
1715;SDS011;855;48.824;9.220;2022-10-17T09:37:49;1.80;;;1.23;;
1715;SDS011;855;48.824;9.220;2022-10-17T09:40:17;1.40;;;0.60;;
1715;SDS011;855;48.824;9.220;2022-10-17T09:42:48;3.10;;;1.60;;
1715;SDS011;855;48.824;9.220;2022-10-17T09:45:17;3.83;;;1.60;;
1715;SDS011;855;48.824;9.220;2022-10-17T09:47:49;1.83;;;1.23;;
1715;SDS011;855;48.824;9.220;2022-10-17T09:50:26;3.50;;;1.07;;
1715;SDS011;855;48.824;9.220;2022-10-17T09:52:54;2.57;;;1.03;;
1715;SDS011;855;48.824;9.220;2022-10-17T09:55:26;2.03;;;1.17;;
1715;SDS011;855;48.824;9.220;2022-10-17T09:57:59;4.47;;;1.20;;
1715;SDS011;855;48.824;9.220;2022-10-17T10:00:28;0.80;;;0.70;;
1715;SDS011;855;48.824;9.220;2022-10-17T10:03:08;1.67;;;1.40;;
1715;SDS011;855;48.824;9.220;2022-10-17T10:05:38;1.70;;;0.90;;
1715;SDS011;855;48.824;9.220;2022-10-17T10:08:11;1.60;;;1.13;;
1715;SDS011;855;48.824;9.220;2022-10-17T10:10:39;2.17;;;1.10;;
1715;SDS011;855;48.824;9.220;2022-10-17T10:13:15;0.83;;;0.67;;
1715;SDS011;855;48.824;9.220;2022-10-17T10:15:44;1.47;;;1.43;;
1715;SDS011;855;48.824;9.220;2022-10-17T10:21:04;3.10;;;1.30;;
1715;SDS011;855;48.824;9.220;2022-10-17T10:23:33;2.53;;;1.40;;
1715;SDS011;855;48.824;9.220;2022-10-17T10:26:16;1.93;;;1.47;;
1715;SDS011;855;48.824;9.220;2022-10-17T10:28:50;10.20;;;1.33;;
1715;SDS011;855;48.824;9.220;2022-10-17T10:31:24;1.60;;;1.27;;
1715;SDS011;855;48.824;9.220;2022-10-17T10:33:59;2.37;;;1.00;;
1715;SDS011;855;48.824;9.220;2022-10-17T10:36:44;1.13;;;0.93;;
1715;SDS011;855;48.824;9.220;2022-10-17T10:39:19;2.20;;;1.10;;
1715;SDS011;855;48.824;9.220;2022-10-17T10:41:52;1.77;;;1.10;;
1715;SDS011;855;48.824;9.220;2022-10-17T10:44:20;2.40;;;1.20;;
1715;SDS011;855;48.824;9.220;2022-10-17T10:47:04;1.80;;;1.63;;
1715;SDS011;855;48.824;9.220;2022-10-17T10:49:33;3.30;;;1.43;;
1715;SDS011;855;48.824;9.220;2022-10-17T10:52:01;2.90;;;1.20;;
1715;SDS011;855;48.824;9.220;2022-10-17T10:54:31;1.00;;;0.90;;
1715;SDS011;855;48.824;9.220;2022-10-17T10:57:03;1.33;;;1.00;;
1715;SDS011;855;48.824;9.220;2022-10-17T10:59:34;3.60;;;1.37;;
1715;SDS011;855;48.824;9.220;2022-10-17T11:02:09;1.00;;;0.80;;
1715;SDS011;855;48.824;9.220;2022-10-17T11:04:45;6.90;;;2.13;;
1715;SDS011;855;48.824;9.220;2022-10-17T11:07:18;2.27;;;1.20;;
1715;SDS011;855;48.824;9.220;2022-10-17T11:09:50;1.33;;;0.87;;
1715;SDS011;855;48.824;9.220;2022-10-17T11:12:22;4.63;;;1.13;;
1715;SDS011;855;48.824;9.220;2022-10-17T11:14:53;2.80;;;1.10;;
1715;SDS011;855;48.824;9.220;2022-10-17T11:17:29;1.50;;;1.17;;
1715;SDS011;855;48.824;9.220;2022-10-17T11:20:05;3.03;;;1.70;;
1715;SDS011;855;48.824;9.220;2022-10-17T11:22:43;4.50;;;1.33;;
1715;SDS011;855;48.824;9.220;2022-10-17T11:25:15;1.23;;;0.90;;
1715;SDS011;855;48.824;9.220;2022-10-17T11:27:49;1.47;;;1.37;;
1715;SDS011;855;48.824;9.220;2022-10-17T11:30:16;1.40;;;1.03;;
1715;SDS011;855;48.824;9.220;2022-10-17T11:32:44;1.90;;;1.10;;
1715;SDS011;855;48.824;9.220;2022-10-17T11:35:17;0.73;;;0.70;;
1715;SDS011;855;48.824;9.220;2022-10-17T11:37:49;4.10;;;0.90;;
1715;SDS011;855;48.824;9.220;2022-10-17T11:40:21;1.10;;;0.93;;
1715;SDS011;855;48.824;9.220;2022-10-17T11:42:56;4.13;;;1.50;;
1715;SDS011;855;48.824;9.220;2022-10-17T11:45:26;3.60;;;1.67;;
1715;SDS011;855;48.824;9.220;2022-10-17T11:47:59;0.67;;;0.67;;
1715;SDS011;855;48.824;9.220;2022-10-17T11:50:33;15.20;;;2.03;;
1715;SDS011;855;48.824;9.220;2022-10-17T11:53:03;0.93;;;0.90;;
1715;SDS011;855;48.824;9.220;2022-10-17T11:55:34;1.10;;;0.90;;
1715;SDS011;855;48.824;9.220;2022-10-17T11:58:11;0.87;;;0.63;;
1715;SDS011;855;48.824;9.220;2022-10-17T12:00:50;1.73;;;0.80;;
1715;SDS011;855;48.824;9.220;2022-10-17T12:03:28;2.10;;;1.10;;
1715;SDS011;855;48.824;9.220;2022-10-17T12:06:14;2.20;;;0.87;;
1715;SDS011;855;48.824;9.220;2022-10-17T12:08:48;4.50;;;1.70;;
1715;SDS011;855;48.824;9.220;2022-10-17T12:11:32;1.50;;;0.97;;
1715;SDS011;855;48.824;9.220;2022-10-17T12:17:08;1.70;;;0.80;;
1715;SDS011;855;48.824;9.220;2022-10-17T12:19:50;1.63;;;1.03;;
1715;SDS011;855;48.824;9.220;2022-10-17T12:22:19;0.80;;;0.67;;
1715;SDS011;855;48.824;9.220;2022-10-17T12:24:56;0.40;;;0.40;;
1715;SDS011;855;48.824;9.220;2022-10-17T12:27:32;3.47;;;1.30;;
1715;SDS011;855;48.824;9.220;2022-10-17T12:30:04;0.77;;;0.67;;
1715;SDS011;855;48.824;9.220;2022-10-17T12:32:51;0.93;;;0.77;;
1715;SDS011;855;48.824;9.220;2022-10-17T12:35:27;2.50;;;1.23;;
1715;SDS011;855;48.824;9.220;2022-10-17T12:38:00;4.27;;;0.83;;
1715;SDS011;855;48.824;9.220;2022-10-17T12:40:52;0.40;;;0.40;;
1715;SDS011;855;48.824;9.220;2022-10-17T12:55:12;1.33;;;0.90;;
1715;SDS011;855;48.824;9.220;2022-10-17T12:57:43;4.53;;;0.90;;
1715;SDS011;855;48.824;9.220;2022-10-17T13:00:17;0.97;;;0.80;;
1715;SDS011;855;48.824;9.220;2022-10-17T13:02:47;1.27;;;0.87;;
1715;SDS011;855;48.824;9.220;2022-10-17T13:05:15;0.53;;;0.47;;
1715;SDS011;855;48.824;9.220;2022-10-17T13:07:47;1.10;;;0.70;;
1715;SDS011;855;48.824;9.220;2022-10-17T13:10:19;1.70;;;0.87;;
1715;SDS011;855;48.824;9.220;2022-10-17T13:12:48;1.67;;;0.80;;
1715;SDS011;855;48.824;9.220;2022-10-17T13:15:16;2.53;;;1.27;;
1715;SDS011;855;48.824;9.220;2022-10-17T13:17:44;1.90;;;0.83;;
1715;SDS011;855;48.824;9.220;2022-10-17T13:20:21;1.20;;;1.13;;
1715;SDS011;855;48.824;9.220;2022-10-17T13:22:52;1.20;;;1.03;;
1715;SDS011;855;48.824;9.220;2022-10-17T13:25:22;1.07;;;0.90;;
1715;SDS011;855;48.824;9.220;2022-10-17T13:27:50;1.27;;;1.10;;
1715;SDS011;855;48.824;9.220;2022-10-17T13:30:29;1.77;;;0.90;;
1715;SDS011;855;48.824;9.220;2022-10-17T13:32:57;1.23;;;0.90;;
1715;SDS011;855;48.824;9.220;2022-10-17T13:35:26;1.40;;;1.17;;
1715;SDS011;855;48.824;9.220;2022-10-17T13:37:55;2.53;;;1.00;;
1715;SDS011;855;48.824;9.220;2022-10-17T13:40:27;2.87;;;1.27;;
1715;SDS011;855;48.824;9.220;2022-10-17T13:42:56;1.90;;;1.20;;
1715;SDS011;855;48.824;9.220;2022-10-17T13:45:28;2.23;;;1.10;;
1715;SDS011;855;48.824;9.220;2022-10-17T13:47:56;2.83;;;0.90;;
1715;SDS011;855;48.824;9.220;2022-10-17T13:50:30;0.67;;;0.60;;
1715;SDS011;855;48.824;9.220;2022-10-17T13:55:55;4.13;;;1.47;;
1715;SDS011;855;48.824;9.220;2022-10-17T13:58:24;2.30;;;0.93;;
1715;SDS011;855;48.824;9.220;2022-10-17T14:00:52;2.90;;;1.10;;
1715;SDS011;855;48.824;9.220;2022-10-17T14:03:19;1.20;;;0.90;;
1715;SDS011;855;48.824;9.220;2022-10-17T14:05:57;2.13;;;1.10;;
1715;SDS011;855;48.824;9.220;2022-10-17T14:08:45;1.47;;;0.80;;
1715;SDS011;855;48.824;9.220;2022-10-17T14:11:24;1.17;;;0.70;;
1715;SDS011;855;48.824;9.220;2022-10-17T14:13:59;0.80;;;0.80;;
1715;SDS011;855;48.824;9.220;2022-10-17T14:16:32;9.53;;;0.97;;
1715;SDS011;855;48.824;9.220;2022-10-17T14:19:01;2.10;;;0.77;;
1715;SDS011;855;48.824;9.220;2022-10-17T14:21:29;1.10;;;1.00;;
1715;SDS011;855;48.824;9.220;2022-10-17T14:24:12;1.63;;;1.03;;
1715;SDS011;855;48.824;9.220;2022-10-17T14:26:51;3.20;;;0.60;;
1715;SDS011;855;48.824;9.220;2022-10-17T14:29:20;3.17;;;1.17;;
1715;SDS011;855;48.824;9.220;2022-10-17T14:31:49;1.47;;;1.20;;
1715;SDS011;855;48.824;9.220;2022-10-17T14:34:23;1.17;;;0.70;;
1715;SDS011;855;48.824;9.220;2022-10-17T14:36:53;0.80;;;0.50;;
1715;SDS011;855;48.824;9.220;2022-10-17T14:39:22;1.20;;;1.00;;
1715;SDS011;855;48.824;9.220;2022-10-17T14:41:51;1.53;;;0.97;;
1715;SDS011;855;48.824;9.220;2022-10-17T14:44:19;10.27;;;1.53;;
1715;SDS011;855;48.824;9.220;2022-10-17T14:46:52;1.97;;;1.27;;
1715;SDS011;855;48.824;9.220;2022-10-17T14:49:26;0.77;;;0.67;;
1715;SDS011;855;48.824;9.220;2022-10-17T14:52:08;1.33;;;0.90;;
1715;SDS011;855;48.824;9.220;2022-10-17T14:54:48;1.90;;;1.27;;
1715;SDS011;855;48.824;9.220;2022-10-17T14:57:19;3.50;;;1.30;;
1715;SDS011;855;48.824;9.220;2022-10-17T14:59:49;1.43;;;1.13;;
1715;SDS011;855;48.824;9.220;2022-10-17T15:02:15;1.93;;;0.80;;
1715;SDS011;855;48.824;9.220;2022-10-17T15:04:42;2.70;;;1.20;;
1715;SDS011;855;48.824;9.220;2022-10-17T15:07:11;1.23;;;1.20;;
1715;SDS011;855;48.824;9.220;2022-10-17T15:09:40;1.43;;;0.80;;
1715;SDS011;855;48.824;9.220;2022-10-17T15:12:10;2.03;;;1.00;;
1715;SDS011;855;48.824;9.220;2022-10-17T15:14:41;0.80;;;0.70;;
1715;SDS011;855;48.824;9.220;2022-10-17T15:17:10;1.03;;;0.90;;
1715;SDS011;855;48.824;9.220;2022-10-17T15:19:39;5.73;;;1.37;;
1715;SDS011;855;48.824;9.220;2022-10-17T15:22:06;5.27;;;1.03;;
1715;SDS011;855;48.824;9.220;2022-10-17T15:24:33;1.27;;;0.83;;
1715;SDS011;855;48.824;9.220;2022-10-17T15:27:00;0.83;;;0.77;;
1715;SDS011;855;48.824;9.220;2022-10-17T15:29:27;0.93;;;0.83;;
1715;SDS011;855;48.824;9.220;2022-10-17T15:31:55;1.07;;;0.97;;
1715;SDS011;855;48.824;9.220;2022-10-17T15:34:22;1.03;;;0.80;;
1715;SDS011;855;48.824;9.220;2022-10-17T15:36:49;4.20;;;1.37;;
1715;SDS011;855;48.824;9.220;2022-10-17T15:39:18;2.73;;;1.07;;
1715;SDS011;855;48.824;9.220;2022-10-17T15:41:45;1.80;;;1.50;;
1715;SDS011;855;48.824;9.220;2022-10-17T15:44:13;2.90;;;1.00;;
1715;SDS011;855;48.824;9.220;2022-10-17T15:46:40;1.83;;;0.90;;
1715;SDS011;855;48.824;9.220;2022-10-17T15:49:11;1.10;;;0.90;;
1715;SDS011;855;48.824;9.220;2022-10-17T15:51:39;3.13;;;0.77;;
1715;SDS011;855;48.824;9.220;2022-10-17T15:54:06;4.10;;;1.07;;
1715;SDS011;855;48.824;9.220;2022-10-17T15:56:35;4.07;;;1.97;;
1715;SDS011;855;48.824;9.220;2022-10-17T15:59:04;6.73;;;1.70;;
1715;SDS011;855;48.824;9.220;2022-10-17T16:01:33;2.30;;;1.67;;
1715;SDS011;855;48.824;9.220;2022-10-17T16:04:00;2.23;;;1.30;;
1715;SDS011;855;48.824;9.220;2022-10-17T16:06:28;5.67;;;3.10;;
1715;SDS011;855;48.824;9.220;2022-10-17T16:08:55;6.03;;;3.17;;
1715;SDS011;855;48.824;9.220;2022-10-17T16:11:27;5.30;;;2.70;;
1715;SDS011;855;48.824;9.220;2022-10-17T16:13:58;11.50;;;2.30;;
1715;SDS011;855;48.824;9.220;2022-10-17T16:16:27;8.57;;;4.03;;
1715;SDS011;855;48.824;9.220;2022-10-17T16:18:54;9.93;;;3.87;;
1715;SDS011;855;48.824;9.220;2022-10-17T16:21:21;12.80;;;4.80;;
1715;SDS011;855;48.824;9.220;2022-10-17T16:23:52;9.30;;;4.30;;
1715;SDS011;855;48.824;9.220;2022-10-17T16:26:19;9.30;;;4.57;;
1715;SDS011;855;48.824;9.220;2022-10-17T16:28:46;11.53;;;4.60;;
1715;SDS011;855;48.824;9.220;2022-10-17T16:31:17;3.80;;;2.60;;
1715;SDS011;855;48.824;9.220;2022-10-17T16:33:47;9.30;;;4.40;;
1715;SDS011;855;48.824;9.220;2022-10-17T16:36:14;14.47;;;4.10;;
1715;SDS011;855;48.824;9.220;2022-10-17T16:38:42;8.50;;;3.43;;
1715;SDS011;855;48.824;9.220;2022-10-17T16:41:13;6.50;;;3.10;;
1715;SDS011;855;48.824;9.220;2022-10-17T16:43:45;6.70;;;3.70;;
1715;SDS011;855;48.824;9.220;2022-10-17T16:46:12;11.37;;;3.33;;
1715;SDS011;855;48.824;9.220;2022-10-17T16:48:39;8.70;;;3.53;;
1715;SDS011;855;48.824;9.220;2022-10-17T16:51:07;14.03;;;4.50;;
1715;SDS011;855;48.824;9.220;2022-10-17T16:53:33;10.20;;;4.40;;
1715;SDS011;855;48.824;9.220;2022-10-17T16:56:04;14.70;;;4.70;;
1715;SDS011;855;48.824;9.220;2022-10-17T16:58:33;5.10;;;3.53;;
1715;SDS011;855;48.824;9.220;2022-10-17T17:01:00;7.07;;;3.50;;
1715;SDS011;855;48.824;9.220;2022-10-17T17:03:28;7.73;;;3.93;;
1715;SDS011;855;48.824;9.220;2022-10-17T17:05:55;6.70;;;3.27;;
1715;SDS011;855;48.824;9.220;2022-10-17T17:08:22;3.90;;;3.07;;
1715;SDS011;855;48.824;9.220;2022-10-17T17:10:48;5.53;;;3.00;;
1715;SDS011;855;48.824;9.220;2022-10-17T17:13:15;5.90;;;2.90;;
1715;SDS011;855;48.824;9.220;2022-10-17T17:15:44;7.30;;;3.20;;
1715;SDS011;855;48.824;9.220;2022-10-17T17:18:11;6.10;;;3.23;;
1715;SDS011;855;48.824;9.220;2022-10-17T17:20:38;6.17;;;3.60;;
1715;SDS011;855;48.824;9.220;2022-10-17T17:23:05;8.77;;;4.00;;
1715;SDS011;855;48.824;9.220;2022-10-17T17:25:34;5.97;;;2.67;;
1715;SDS011;855;48.824;9.220;2022-10-17T17:28:01;8.87;;;2.80;;
1715;SDS011;855;48.824;9.220;2022-10-17T17:35:36;5.73;;;3.00;;
1715;SDS011;855;48.824;9.220;2022-10-17T17:38:04;7.07;;;3.37;;
1715;SDS011;855;48.824;9.220;2022-10-17T17:40:31;7.57;;;3.43;;
1715;SDS011;855;48.824;9.220;2022-10-17T17:42:58;11.37;;;3.80;;
1715;SDS011;855;48.824;9.220;2022-10-17T17:45:25;7.30;;;3.10;;
1715;SDS011;855;48.824;9.220;2022-10-17T17:47:52;5.97;;;3.70;;
1715;SDS011;855;48.824;9.220;2022-10-17T17:55:31;5.95;;;3.90;;
1715;SDS011;855;48.824;9.220;2022-10-17T17:57:58;6.13;;;3.40;;
1715;SDS011;855;48.824;9.220;2022-10-17T18:02:53;7.17;;;2.77;;
1715;SDS011;855;48.824;9.220;2022-10-17T18:05:21;5.97;;;3.20;;
1715;SDS011;855;48.824;9.220;2022-10-17T18:07:48;10.17;;;3.87;;
1715;SDS011;855;48.824;9.220;2022-10-17T18:10:15;5.90;;;3.00;;
1715;SDS011;855;48.824;9.220;2022-10-17T18:12:43;7.30;;;3.57;;
1715;SDS011;855;48.824;9.220;2022-10-17T18:15:10;4.90;;;3.37;;
1715;SDS011;855;48.824;9.220;2022-10-17T18:17:37;8.50;;;3.43;;
1715;SDS011;855;48.824;9.220;2022-10-17T18:20:05;6.93;;;2.80;;
1715;SDS011;855;48.824;9.220;2022-10-17T18:22:32;4.10;;;2.60;;
1715;SDS011;855;48.824;9.220;2022-10-17T18:25:00;7.03;;;3.67;;
1715;SDS011;855;48.824;9.220;2022-10-17T18:27:27;7.63;;;2.60;;
1715;SDS011;855;48.824;9.220;2022-10-17T18:29:55;4.17;;;3.07;;
1715;SDS011;855;48.824;9.220;2022-10-17T18:32:22;13.90;;;3.63;;
1715;SDS011;855;48.824;9.220;2022-10-17T18:34:48;4.03;;;2.87;;
1715;SDS011;855;48.824;9.220;2022-10-17T18:37:15;5.40;;;2.77;;
1715;SDS011;855;48.824;9.220;2022-10-17T18:39:42;6.27;;;3.77;;
1715;SDS011;855;48.824;9.220;2022-10-17T18:42:09;6.27;;;3.37;;
1715;SDS011;855;48.824;9.220;2022-10-17T18:44:36;3.10;;;2.43;;
1715;SDS011;855;48.824;9.220;2022-10-17T18:47:04;6.43;;;3.03;;
1715;SDS011;855;48.824;9.220;2022-10-17T18:49:31;10.80;;;4.40;;
1715;SDS011;855;48.824;9.220;2022-10-17T18:51:58;5.60;;;3.23;;
1715;SDS011;855;48.824;9.220;2022-10-17T18:54:24;5.63;;;2.70;;
1715;SDS011;855;48.824;9.220;2022-10-17T18:56:52;5.33;;;3.10;;
1715;SDS011;855;48.824;9.220;2022-10-17T18:59:19;6.60;;;2.73;;
1715;SDS011;855;48.824;9.220;2022-10-17T19:01:46;2.73;;;2.20;;
1715;SDS011;855;48.824;9.220;2022-10-17T19:04:15;6.20;;;3.03;;
1715;SDS011;855;48.824;9.220;2022-10-17T19:06:42;3.00;;;2.30;;
1715;SDS011;855;48.824;9.220;2022-10-17T19:09:10;8.13;;;3.77;;
1715;SDS011;855;48.824;9.220;2022-10-17T19:11:38;4.20;;;2.47;;
1715;SDS011;855;48.824;9.220;2022-10-17T19:14:06;5.50;;;2.33;;
1715;SDS011;855;48.824;9.220;2022-10-17T19:16:37;8.17;;;2.97;;
1715;SDS011;855;48.824;9.220;2022-10-17T19:19:05;6.33;;;3.20;;
1715;SDS011;855;48.824;9.220;2022-10-17T19:21:36;3.90;;;2.60;;
1715;SDS011;855;48.824;9.220;2022-10-17T19:24:05;15.13;;;4.47;;
1715;SDS011;855;48.824;9.220;2022-10-17T19:26:33;3.70;;;2.87;;
1715;SDS011;855;48.824;9.220;2022-10-17T19:29:01;6.70;;;2.20;;
1715;SDS011;855;48.824;9.220;2022-10-17T19:31:29;7.70;;;2.80;;
1715;SDS011;855;48.824;9.220;2022-10-17T19:33:57;6.97;;;2.47;;
1715;SDS011;855;48.824;9.220;2022-10-17T19:36:25;4.70;;;2.60;;
1715;SDS011;855;48.824;9.220;2022-10-17T19:44:16;6.30;;;2.97;;
1715;SDS011;855;48.824;9.220;2022-10-17T19:46:43;8.73;;;3.50;;
1715;SDS011;855;48.824;9.220;2022-10-17T19:49:11;6.67;;;3.27;;
1715;SDS011;855;48.824;9.220;2022-10-17T19:54:13;8.20;;;3.13;;
1715;SDS011;855;48.824;9.220;2022-10-17T19:56:42;4.20;;;2.17;;
1715;SDS011;855;48.824;9.220;2022-10-17T19:59:10;5.20;;;2.93;;
1715;SDS011;855;48.824;9.220;2022-10-17T20:01:42;4.23;;;2.50;;
1715;SDS011;855;48.824;9.220;2022-10-17T20:04:09;4.63;;;2.60;;
1715;SDS011;855;48.824;9.220;2022-10-17T20:12:02;4.37;;;2.10;;
1715;SDS011;855;48.824;9.220;2022-10-17T20:14:29;3.73;;;2.33;;
1715;SDS011;855;48.824;9.220;2022-10-17T20:16:57;4.10;;;2.63;;
1715;SDS011;855;48.824;9.220;2022-10-17T20:19:24;5.47;;;3.67;;
1715;SDS011;855;48.824;9.220;2022-10-17T20:21:51;8.10;;;3.17;;
1715;SDS011;855;48.824;9.220;2022-10-17T20:24:19;8.37;;;3.80;;
1715;SDS011;855;48.824;9.220;2022-10-17T20:26:46;4.87;;;3.33;;
1715;SDS011;855;48.824;9.220;2022-10-17T20:29:14;5.80;;;2.60;;
1715;SDS011;855;48.824;9.220;2022-10-17T20:31:44;8.63;;;2.97;;
1715;SDS011;855;48.824;9.220;2022-10-17T20:34:13;11.47;;;3.00;;
1715;SDS011;855;48.824;9.220;2022-10-17T20:39:18;4.83;;;2.27;;
1715;SDS011;855;48.824;9.220;2022-10-17T20:52:04;8.73;;;2.67;;
1715;SDS011;855;48.824;9.220;2022-10-17T20:54:31;5.07;;;2.97;;
1715;SDS011;855;48.824;9.220;2022-10-17T20:56:58;6.67;;;2.20;;
1715;SDS011;855;48.824;9.220;2022-10-17T20:59:26;11.20;;;3.70;;
1715;SDS011;855;48.824;9.220;2022-10-17T21:04:28;5.53;;;2.93;;
1715;SDS011;855;48.824;9.220;2022-10-17T21:06:57;6.60;;;3.87;;
1715;SDS011;855;48.824;9.220;2022-10-17T21:09:25;4.67;;;3.53;;
1715;SDS011;855;48.824;9.220;2022-10-17T21:11:52;6.17;;;3.00;;
1715;SDS011;855;48.824;9.220;2022-10-17T21:14:20;6.13;;;2.90;;
1715;SDS011;855;48.824;9.220;2022-10-17T21:16:48;6.17;;;3.80;;
1715;SDS011;855;48.824;9.220;2022-10-17T21:19:16;4.13;;;2.50;;
1715;SDS011;855;48.824;9.220;2022-10-17T21:21:44;11.00;;;3.93;;
1715;SDS011;855;48.824;9.220;2022-10-17T21:24:12;2.93;;;2.00;;
1715;SDS011;855;48.824;9.220;2022-10-17T21:26:43;5.40;;;3.27;;
1715;SDS011;855;48.824;9.220;2022-10-17T21:29:11;7.80;;;3.17;;
1715;SDS011;855;48.824;9.220;2022-10-17T21:31:39;16.00;;;2.57;;
1715;SDS011;855;48.824;9.220;2022-10-17T21:34:08;5.97;;;3.00;;
1715;SDS011;855;48.824;9.220;2022-10-17T21:36:36;5.30;;;3.30;;
1715;SDS011;855;48.824;9.220;2022-10-17T21:41:39;4.80;;;3.17;;
1715;SDS011;855;48.824;9.220;2022-10-17T21:44:11;5.50;;;2.77;;
1715;SDS011;855;48.824;9.220;2022-10-17T21:46:40;5.43;;;2.97;;
1715;SDS011;855;48.824;9.220;2022-10-17T21:49:07;10.00;;;5.90;;
1715;SDS011;855;48.824;9.220;2022-10-17T21:51:35;14.30;;;3.47;;
1715;SDS011;855;48.824;9.220;2022-10-17T21:54:03;9.43;;;3.67;;
1715;SDS011;855;48.824;9.220;2022-10-17T21:56:31;5.57;;;2.93;;
1715;SDS011;855;48.824;9.220;2022-10-17T21:58:58;7.63;;;2.90;;
1715;SDS011;855;48.824;9.220;2022-10-17T22:01:28;7.37;;;3.43;;
1715;SDS011;855;48.824;9.220;2022-10-17T22:06:31;3.43;;;2.67;;
1715;SDS011;855;48.824;9.220;2022-10-17T22:09:00;5.07;;;2.70;;
1715;SDS011;855;48.824;9.220;2022-10-17T22:11:29;6.83;;;3.60;;
1715;SDS011;855;48.824;9.220;2022-10-17T22:13:59;3.60;;;1.70;;
1715;SDS011;855;48.824;9.220;2022-10-17T22:16:28;5.83;;;3.03;;
1715;SDS011;855;48.824;9.220;2022-10-17T22:18:55;6.80;;;2.70;;
1715;SDS011;855;48.824;9.220;2022-10-17T22:21:23;8.93;;;3.90;;
1715;SDS011;855;48.824;9.220;2022-10-17T22:23:53;6.43;;;3.50;;
1715;SDS011;855;48.824;9.220;2022-10-17T22:26:21;6.93;;;2.10;;
1715;SDS011;855;48.824;9.220;2022-10-17T22:28:49;6.20;;;2.70;;
1715;SDS011;855;48.824;9.220;2022-10-17T22:31:17;4.63;;;2.60;;
1715;SDS011;855;48.824;9.220;2022-10-17T22:36:21;6.63;;;2.03;;
1715;SDS011;855;48.824;9.220;2022-10-17T22:38:48;5.60;;;2.53;;
1715;SDS011;855;48.824;9.220;2022-10-17T22:41:16;8.30;;;3.07;;
1715;SDS011;855;48.824;9.220;2022-10-17T22:43:43;5.50;;;3.00;;
1715;SDS011;855;48.824;9.220;2022-10-17T22:46:11;4.40;;;2.63;;
1715;SDS011;855;48.824;9.220;2022-10-17T22:48:40;6.10;;;2.40;;
1715;SDS011;855;48.824;9.220;2022-10-17T22:53:44;4.40;;;2.90;;
1715;SDS011;855;48.824;9.220;2022-10-17T22:56:12;5.43;;;3.07;;
1715;SDS011;855;48.824;9.220;2022-10-17T22:58:42;5.23;;;2.67;;
1715;SDS011;855;48.824;9.220;2022-10-17T23:11:31;2.93;;;2.70;;
1715;SDS011;855;48.824;9.220;2022-10-17T23:32:08;2.50;;;1.80;;
1715;SDS011;855;48.824;9.220;2022-10-17T23:37:11;3.83;;;2.60;;
1715;SDS011;855;48.824;9.220;2022-10-17T23:57:47;6.57;;;3.50;;
